Time;durP1;ratioP1;P1;durP2;ratioP2;P2;SDS_P1;SDS_P2;PMS_P1;PMS_P2;Temp;Humidity;BMP_temperature;BMP_pressure;BME280_temperature;BME280_humidity;BME280_pressure;Samples;Min_cycle;Max_cycle;Signal;HPM_P1;HPM_P2
2023/11/22 00:00:16;;;;;;;11.27;9.13;;;;;;;;;;5022875;28;20299;-54
2023/11/22 00:02:41;;;;;;;13.25;9.70;;;;;;;;;;5029896;28;20128;-53
2023/11/22 00:05:06;;;;;;;11.38;8.95;;;;;;;;;;5025878;28;20510;-53
2023/11/22 00:07:32;;;;;;;13.50;9.50;;;;;;;;;;5023720;28;20049;-53
2023/11/22 00:09:57;;;;;;;11.90;9.38;;;;;;;;;;5024055;28;20515;-53
2023/11/22 00:12:24;;;;;;;11.63;9.05;;;;;;;;;;5023367;28;20040;-53
2023/11/22 00:14:49;;;;;;;13.82;9.55;;;;;;;;;;5037335;28;20036;-54
2023/11/22 00:17:17;;;;;;;11.85;9.15;;;;;;;;;;5031418;28;20095;-53
2023/11/22 00:19:42;;;;;;;12.65;9.02;;;;;;;;;;5036666;28;20068;-54
2023/11/22 00:22:14;;;;;;;14.27;9.27;;;;;;;;;;5036848;28;20042;-53
2023/11/22 00:24:40;;;;;;;14.40;9.60;;;;;;;;;;5025954;28;20100;-55
2023/11/22 00:27:06;;;;;;;12.55;9.05;;;;;;;;;;5023282;28;20455;-55
2023/11/22 00:29:31;;;;;;;12.30;9.13;;;;;;;;;;5025916;28;20068;-55
2023/11/22 00:31:57;;;;;;;11.68;8.88;;;;;;;;;;5010555;28;20033;-54
2023/11/22 00:34:23;;;;;;;11.98;9.48;;;;;;;;;;5024490;28;20048;-54
2023/11/22 00:36:48;;;;;;;11.63;8.93;;;;;;;;;;5032246;28;20033;-53
2023/11/22 00:39:14;;;;;;;11.65;9.05;;;;;;;;;;5005311;28;20036;-53
2023/11/22 00:41:39;;;;;;;11.70;9.25;;;;;;;;;;5031854;28;20108;-54
2023/11/22 00:44:05;;;;;;;12.68;9.32;;;;;;;;;;5023861;28;20197;-53
2023/11/22 00:46:31;;;;;;;13.85;8.88;;;;;;;;;;5022932;28;20033;-53
2023/11/22 00:48:56;;;;;;;13.07;9.10;;;;;;;;;;5022638;28;20021;-54
2023/11/22 00:51:22;;;;;;;12.52;9.23;;;;;;;;;;5023095;28;20013;-53
2023/11/22 00:53:47;;;;;;;10.98;9.20;;;;;;;;;;5024632;28;20030;-53
2023/11/22 00:56:12;;;;;;;12.05;8.82;;;;;;;;;;5005142;28;20944;-53
2023/11/22 00:58:38;;;;;;;11.43;8.55;;;;;;;;;;5023040;28;20040;-54
2023/11/22 01:01:03;;;;;;;11.30;8.87;;;;;;;;;;5022180;28;20477;-54
2023/11/22 01:03:28;;;;;;;12.32;9.73;;;;;;;;;;5026721;28;20377;-54
2023/11/22 01:05:53;;;;;;;11.00;8.47;;;;;;;;;;5032864;28;20013;-54
2023/11/22 01:08:19;;;;;;;13.32;9.48;;;;;;;;;;5007853;28;20275;-54
2023/11/22 01:10:44;;;;;;;12.60;9.05;;;;;;;;;;5026191;28;20112;-53
2023/11/22 01:13:09;;;;;;;13.87;9.23;;;;;;;;;;5025885;28;20105;-53
2023/11/22 01:15:35;;;;;;;12.00;9.02;;;;;;;;;;5026279;28;20586;-53
2023/11/22 01:18:00;;;;;;;11.73;8.50;;;;;;;;;;5026833;28;20518;-53
2023/11/22 01:20:25;;;;;;;10.97;9.13;;;;;;;;;;5025398;28;20022;-54
2023/11/22 01:22:50;;;;;;;11.83;9.10;;;;;;;;;;5034273;28;20268;-54
2023/11/22 01:25:16;;;;;;;11.15;8.70;;;;;;;;;;5029368;28;20330;-53
2023/11/22 01:27:41;;;;;;;11.18;8.77;;;;;;;;;;5026463;28;20410;-53
2023/11/22 01:30:09;;;;;;;11.30;8.50;;;;;;;;;;5026156;28;20013;-54
2023/11/22 01:32:35;;;;;;;11.60;9.13;;;;;;;;;;5026004;28;20036;-54
2023/11/22 01:35:00;;;;;;;10.93;8.40;;;;;;;;;;5033294;28;20029;-53
2023/11/22 01:37:27;;;;;;;11.20;8.80;;;;;;;;;;5006207;28;20287;-53
2023/11/22 01:39:52;;;;;;;11.00;8.88;;;;;;;;;;5031739;28;20016;-54
2023/11/22 01:42:17;;;;;;;12.38;8.35;;;;;;;;;;5033880;28;20383;-53
2023/11/22 01:44:42;;;;;;;11.90;8.73;;;;;;;;;;5026397;28;20026;-55
2023/11/22 01:47:08;;;;;;;11.40;8.55;;;;;;;;;;5026656;28;20518;-55
2023/11/22 01:49:33;;;;;;;11.30;8.90;;;;;;;;;;5026178;28;20037;-54
2023/11/22 01:51:59;;;;;;;10.07;7.95;;;;;;;;;;5000836;28;20072;-55
2023/11/22 01:54:24;;;;;;;10.63;8.45;;;;;;;;;;5006775;28;20025;-55
2023/11/22 01:56:49;;;;;;;12.13;8.82;;;;;;;;;;5008058;28;20036;-54
2023/11/22 01:59:15;;;;;;;10.75;8.15;;;;;;;;;;5026180;28;20079;-54
2023/11/22 02:01:40;;;;;;;10.80;8.45;;;;;;;;;;5025489;28;20839;-54
2023/11/22 02:04:06;;;;;;;11.50;8.48;;;;;;;;;;5028029;28;20037;-55
2023/11/22 02:06:31;;;;;;;10.85;8.48;;;;;;;;;;5024935;28;20091;-54
2023/11/22 02:08:56;;;;;;;10.90;8.47;;;;;;;;;;5031306;28;20033;-54
2023/11/22 02:11:22;;;;;;;11.63;8.43;;;;;;;;;;5025512;28;20662;-55
2023/11/22 02:13:50;;;;;;;10.52;8.77;;;;;;;;;;5028053;28;20268;-54
2023/11/22 02:16:16;;;;;;;11.52;8.60;;;;;;;;;;5011060;28;20442;-54
2023/11/22 02:18:43;;;;;;;11.18;8.40;;;;;;;;;;5024777;28;20112;-54
2023/11/22 02:21:08;;;;;;;10.73;8.55;;;;;;;;;;5025137;28;20120;-55
2023/11/22 02:23:33;;;;;;;10.97;9.07;;;;;;;;;;5025159;28;20140;-55
2023/11/22 02:25:58;;;;;;;11.60;8.10;;;;;;;;;;5025568;28;20343;-54
2023/11/22 02:28:24;;;;;;;10.57;8.37;;;;;;;;;;5025850;28;20045;-54
2023/11/22 02:30:49;;;;;;;11.65;8.65;;;;;;;;;;5007021;28;20341;-55
2023/11/22 02:33:14;;;;;;;10.70;7.90;;;;;;;;;;5025484;28;20037;-54
2023/11/22 02:35:40;;;;;;;8.97;7.63;;;;;;;;;;5032062;28;20116;-54
2023/11/22 02:38:06;;;;;;;9.80;8.13;;;;;;;;;;5035442;28;20292;-54
2023/11/22 02:40:31;;;;;;;11.40;8.23;;;;;;;;;;5027829;28;20578;-55
2023/11/22 02:42:56;;;;;;;9.18;7.63;;;;;;;;;;5027707;28;20303;-55
2023/11/22 02:45:25;;;;;;;9.87;8.03;;;;;;;;;;5029189;28;20029;-55
2023/11/22 02:47:52;;;;;;;10.85;7.72;;;;;;;;;;5025551;28;20264;-54
2023/11/22 02:50:17;;;;;;;9.88;7.90;;;;;;;;;;5024066;28;20037;-54
2023/11/22 02:52:43;;;;;;;11.43;8.30;;;;;;;;;;5024452;28;20384;-55
2023/11/22 02:55:11;;;;;;;10.35;8.10;;;;;;;;;;5027907;28;20045;-54
2023/11/22 02:57:40;;;;;;;8.95;7.55;;;;;;;;;;5025267;28;20164;-54
2023/11/22 03:00:05;;;;;;;11.13;8.27;;;;;;;;;;5037398;28;20032;-55
2023/11/22 03:02:34;;;;;;;10.88;7.97;;;;;;;;;;5024591;28;20515;-54
2023/11/22 03:04:59;;;;;;;10.18;7.63;;;;;;;;;;5025076;28;20056;-54
2023/11/22 03:07:27;;;;;;;10.17;7.90;;;;;;;;;;5024107;28;20261;-55
2023/11/22 03:09:53;;;;;;;9.93;7.78;;;;;;;;;;5024480;28;20673;-54
2023/11/22 03:12:20;;;;;;;10.57;7.85;;;;;;;;;;5005738;28;20156;-54
2023/11/22 03:14:45;;;;;;;9.75;7.90;;;;;;;;;;5007129;28;20029;-54
2023/11/22 03:17:10;;;;;;;11.18;8.23;;;;;;;;;;5034946;28;20041;-54
2023/11/22 03:19:35;;;;;;;10.07;7.57;;;;;;;;;;5025718;28;20148;-54
2023/11/22 03:22:02;;;;;;;9.63;7.68;;;;;;;;;;5029776;28;20037;-54
2023/11/22 03:24:28;;;;;;;9.05;7.28;;;;;;;;;;5029957;28;20061;-54
2023/11/22 03:26:56;;;;;;;9.77;7.72;;;;;;;;;;5005692;28;20060;-54
2023/11/22 03:29:21;;;;;;;9.88;7.70;;;;;;;;;;5024326;28;20030;-54
2023/11/22 03:31:46;;;;;;;10.13;7.47;;;;;;;;;;5028019;28;20033;-54
2023/11/22 03:34:12;;;;;;;9.73;7.65;;;;;;;;;;5008405;28;20375;-54
2023/11/22 03:36:37;;;;;;;10.85;8.52;;;;;;;;;;5005320;28;20061;-55
2023/11/22 03:39:02;;;;;;;8.73;7.33;;;;;;;;;;5006799;28;20068;-53
2023/11/22 03:41:28;;;;;;;9.07;7.60;;;;;;;;;;5030857;28;20283;-54
2023/11/22 03:43:53;;;;;;;8.98;7.10;;;;;;;;;;5024404;28;20029;-54
2023/11/22 03:46:18;;;;;;;9.18;7.20;;;;;;;;;;5023682;28;20091;-54
2023/11/22 03:48:44;;;;;;;9.23;6.97;;;;;;;;;;5024175;28;20436;-55
2023/11/22 03:51:09;;;;;;;9.83;7.50;;;;;;;;;;5022403;28;20292;-54
2023/11/22 03:53:34;;;;;;;9.70;7.40;;;;;;;;;;5024464;28;20268;-54
2023/11/22 03:55:59;;;;;;;10.30;7.83;;;;;;;;;;5023901;28;20474;-54
2023/11/22 03:58:25;;;;;;;9.47;7.57;;;;;;;;;;5024322;28;20307;-54
2023/11/22 04:00:52;;;;;;;9.32;7.28;;;;;;;;;;5023039;28;20314;-54
2023/11/22 04:03:18;;;;;;;9.57;7.57;;;;;;;;;;5024568;28;20087;-54
2023/11/22 04:05:43;;;;;;;10.60;7.53;;;;;;;;;;5026511;28;20137;-53
2023/11/22 04:08:09;;;;;;;9.57;7.45;;;;;;;;;;5023672;28;20120;-54
2023/11/22 04:10:34;;;;;;;9.10;7.28;;;;;;;;;;5023333;28;20176;-54
2023/11/22 04:13:00;;;;;;;10.55;7.90;;;;;;;;;;5005783;28;20495;-54
2023/11/22 04:15:25;;;;;;;9.40;7.30;;;;;;;;;;5029719;28;20136;-55
2023/11/22 04:17:54;;;;;;;9.73;7.63;;;;;;;;;;5027524;28;20391;-54
2023/11/22 04:20:19;;;;;;;8.65;7.28;;;;;;;;;;5030215;28;20466;-54
2023/11/22 04:22:47;;;;;;;10.20;7.40;;;;;;;;;;5026239;28;20102;-54
2023/11/22 04:25:15;;;;;;;9.10;7.40;;;;;;;;;;5015662;28;20286;-54
2023/11/22 04:27:41;;;;;;;8.90;6.78;;;;;;;;;;5023556;28;20067;-55
2023/11/22 04:30:08;;;;;;;9.45;7.05;;;;;;;;;;5023807;28;20041;-55
2023/11/22 04:32:34;;;;;;;9.30;7.30;;;;;;;;;;5023012;28;20490;-54
2023/11/22 04:34:59;;;;;;;8.55;6.65;;;;;;;;;;5026238;28;20025;-55
2023/11/22 04:37:26;;;;;;;8.60;6.77;;;;;;;;;;5035442;28;20068;-55
2023/11/22 04:39:52;;;;;;;9.05;6.85;;;;;;;;;;5036529;28;20276;-55
2023/11/22 04:42:17;;;;;;;9.10;6.97;;;;;;;;;;5027548;28;20061;-54
2023/11/22 04:44:43;;;;;;;9.23;6.67;;;;;;;;;;5026938;28;20475;-55
2023/11/22 04:47:08;;;;;;;8.27;6.37;;;;;;;;;;5027727;28;20284;-55
2023/11/22 04:49:33;;;;;;;8.27;6.93;;;;;;;;;;5027274;28;20913;-55
2023/11/22 04:51:58;;;;;;;8.82;6.40;;;;;;;;;;5030551;28;20406;-54
2023/11/22 04:54:24;;;;;;;9.60;6.72;;;;;;;;;;5031108;28;20121;-55
2023/11/22 04:56:50;;;;;;;7.90;6.67;;;;;;;;;;5033165;28;20056;-55
2023/11/22 04:59:15;;;;;;;9.18;7.00;;;;;;;;;;5026932;28;20296;-55
2023/11/22 05:01:40;;;;;;;8.37;6.80;;;;;;;;;;4998884;28;20034;-54
2023/11/22 05:04:06;;;;;;;8.67;6.83;;;;;;;;;;5026715;28;20334;-54
2023/11/22 05:06:31;;;;;;;8.07;6.35;;;;;;;;;;5026712;28;20301;-55
2023/11/22 05:08:56;;;;;;;8.20;6.72;;;;;;;;;;5027714;28;20037;-55
2023/11/22 05:11:22;;;;;;;7.90;6.55;;;;;;;;;;5008802;28;20034;-54
2023/11/22 05:13:47;;;;;;;8.23;6.55;;;;;;;;;;5026980;28;20029;-54
2023/11/22 05:16:13;;;;;;;8.63;6.70;;;;;;;;;;5039488;28;20348;-54
2023/11/22 05:18:38;;;;;;;9.45;6.70;;;;;;;;;;5028192;28;20067;-54
2023/11/22 05:21:03;;;;;;;8.20;6.50;;;;;;;;;;5026390;28;20554;-54
2023/11/22 05:23:29;;;;;;;7.90;6.38;;;;;;;;;;5027178;28;20038;-55
2023/11/22 05:25:54;;;;;;;7.45;5.90;;;;;;;;;;5026761;28;20052;-55
2023/11/22 05:28:19;;;;;;;8.57;6.65;;;;;;;;;;5026532;28;20576;-55
2023/11/22 05:30:45;;;;;;;7.55;6.15;;;;;;;;;;5008441;28;20036;-55
2023/11/22 05:33:10;;;;;;;7.97;6.10;;;;;;;;;;5036203;28;20491;-54
2023/11/22 05:35:35;;;;;;;8.13;6.35;;;;;;;;;;5008091;28;20033;-54
2023/11/22 05:38:01;;;;;;;9.13;6.65;;;;;;;;;;5033191;28;20098;-55
2023/11/22 05:40:27;;;;;;;9.85;6.70;;;;;;;;;;5034565;28;20107;-55
2023/11/22 05:42:52;;;;;;;8.23;6.40;;;;;;;;;;5038055;28;20423;-55
2023/11/22 05:45:17;;;;;;;8.20;6.30;;;;;;;;;;5027008;28;20112;-55
2023/11/22 05:47:43;;;;;;;7.97;6.28;;;;;;;;;;5027048;28;20276;-56
2023/11/22 05:50:08;;;;;;;7.20;5.97;;;;;;;;;;5026551;28;20243;-56
2023/11/22 05:52:34;;;;;;;7.97;6.55;;;;;;;;;;5024655;28;20589;-55
2023/11/22 05:55:03;;;;;;;8.38;6.38;;;;;;;;;;5028224;28;20438;-55
2023/11/22 05:57:28;;;;;;;7.45;6.07;;;;;;;;;;5026095;28;20042;-55
2023/11/22 05:59:54;;;;;;;8.65;6.10;;;;;;;;;;5027273;28;20446;-55
2023/11/22 06:02:19;;;;;;;8.18;6.10;;;;;;;;;;5028348;28;20587;-55
2023/11/22 06:04:44;;;;;;;8.13;5.93;;;;;;;;;;5018469;28;20041;-55
2023/11/22 06:07:10;;;;;;;7.32;6.00;;;;;;;;;;5017238;28;20534;-55
2023/11/22 06:09:36;;;;;;;7.47;6.13;;;;;;;;;;5026963;28;20129;-56
2023/11/22 06:12:01;;;;;;;7.07;5.60;;;;;;;;;;4992986;28;20401;-56
2023/11/22 06:14:26;;;;;;;8.00;5.77;;;;;;;;;;5010032;28;20075;-57
2023/11/22 06:16:51;;;;;;;7.67;5.80;;;;;;;;;;5011533;28;21831;-56
2023/11/22 06:19:17;;;;;;;7.38;5.60;;;;;;;;;;5011649;28;20296;-56
2023/11/22 06:21:42;;;;;;;7.90;5.30;;;;;;;;;;5010917;28;20511;-56
2023/11/22 06:24:09;;;;;;;8.15;5.70;;;;;;;;;;4999269;28;20125;-56
2023/11/22 06:26:34;;;;;;;6.63;5.72;;;;;;;;;;5012058;28;20520;-56
2023/11/22 06:28:59;;;;;;;8.30;5.63;;;;;;;;;;5011484;28;20056;-57
2023/11/22 06:31:25;;;;;;;7.50;5.45;;;;;;;;;;5010931;28;20026;-56
2023/11/22 06:33:52;;;;;;;7.47;5.70;;;;;;;;;;5011139;28;20042;-57
2023/11/22 06:36:18;;;;;;;7.13;5.47;;;;;;;;;;5012066;28;20126;-56
2023/11/22 06:38:43;;;;;;;6.65;5.63;;;;;;;;;;5012011;28;20064;-57
2023/11/22 06:41:08;;;;;;;8.57;5.78;;;;;;;;;;5011547;28;20034;-56
2023/11/22 06:43:34;;;;;;;7.18;5.50;;;;;;;;;;5011554;28;20140;-56
2023/11/22 06:46:00;;;;;;;8.55;5.82;;;;;;;;;;5011509;28;20041;-57
2023/11/22 06:48:26;;;;;;;6.65;5.55;;;;;;;;;;5011337;28;20034;-56
2023/11/22 06:50:51;;;;;;;6.23;5.40;;;;;;;;;;5009332;28;20550;-56
2023/11/22 06:53:19;;;;;;;7.18;5.05;;;;;;;;;;4991942;28;20293;-56
2023/11/22 06:55:45;;;;;;;9.02;5.60;;;;;;;;;;5011027;28;20087;-56
2023/11/22 06:58:11;;;;;;;6.13;5.00;;;;;;;;;;5009751;28;20049;-56
2023/11/22 07:00:36;;;;;;;6.97;5.40;;;;;;;;;;5007770;28;20021;-56
2023/11/22 07:03:01;;;;;;;9.07;5.28;;;;;;;;;;5009446;28;20055;-56
2023/11/22 07:05:27;;;;;;;6.90;4.95;;;;;;;;;;5010079;28;20060;-56
2023/11/22 07:07:54;;;;;;;8.45;5.35;;;;;;;;;;5010138;28;20040;-57
2023/11/22 07:10:20;;;;;;;7.00;5.10;;;;;;;;;;5010018;28;20045;-57
2023/11/22 07:12:47;;;;;;;6.57;5.15;;;;;;;;;;5009235;28;20037;-56
2023/11/22 07:15:13;;;;;;;7.45;5.28;;;;;;;;;;5009036;28;20160;-56
2023/11/22 07:17:39;;;;;;;8.23;5.38;;;;;;;;;;4992099;28;20487;-56
2023/11/22 07:20:09;;;;;;;6.10;4.57;;;;;;;;;;5010302;28;20129;-56
2023/11/22 07:22:34;;;;;;;7.13;4.93;;;;;;;;;;4997447;28;20045;-55
2023/11/22 07:25:02;;;;;;;6.28;4.72;;;;;;;;;;5010025;28;20045;-55
2023/11/22 07:27:27;;;;;;;5.72;4.70;;;;;;;;;;5009652;28;20657;-55
2023/11/22 07:29:52;;;;;;;6.23;4.47;;;;;;;;;;5009504;28;20191;-55
2023/11/22 07:32:20;;;;;;;7.07;5.40;;;;;;;;;;5009594;28;20741;-55
2023/11/22 07:34:45;;;;;;;6.93;4.82;;;;;;;;;;5010404;28;20729;-56
2023/11/22 07:37:10;;;;;;;5.63;4.53;;;;;;;;;;5009612;28;20051;-56
2023/11/22 07:39:36;;;;;;;6.60;4.65;;;;;;;;;;5009675;28;20130;-56
2023/11/22 07:42:02;;;;;;;5.95;4.82;;;;;;;;;;5010013;28;20045;-57
2023/11/22 07:44:27;;;;;;;6.18;4.45;;;;;;;;;;5010938;28;20137;-57
2023/11/22 07:46:53;;;;;;;6.30;4.68;;;;;;;;;;5009871;28;20194;-57
2023/11/22 07:49:22;;;;;;;6.10;4.65;;;;;;;;;;5011847;28;20052;-56
2023/11/22 07:51:47;;;;;;;6.43;4.63;;;;;;;;;;5010816;28;20177;-56
2023/11/22 07:54:15;;;;;;;6.40;4.53;;;;;;;;;;5010589;28;20502;-57
2023/11/22 07:56:44;;;;;;;6.60;4.40;;;;;;;;;;5009813;28;20275;-56
2023/11/22 07:59:10;;;;;;;5.93;4.07;;;;;;;;;;5008895;28;20037;-56
2023/11/22 08:01:36;;;;;;;6.07;4.50;;;;;;;;;;5010448;28;20021;-56
2023/11/22 08:04:02;;;;;;;6.82;4.88;;;;;;;;;;5010072;28;20457;-56
2023/11/22 08:06:28;;;;;;;6.28;4.30;;;;;;;;;;5010591;28;20418;-57
2023/11/22 08:08:53;;;;;;;6.95;4.63;;;;;;;;;;5010755;28;20025;-55
2023/11/22 08:11:18;;;;;;;5.78;3.95;;;;;;;;;;5010049;28;20026;-55
2023/11/22 08:13:44;;;;;;;5.57;4.45;;;;;;;;;;5011009;28;20086;-56
2023/11/22 08:16:10;;;;;;;5.47;4.05;;;;;;;;;;5010360;28;20029;-55
2023/11/22 08:18:35;;;;;;;5.85;4.32;;;;;;;;;;5009325;28;20029;-55
2023/11/22 08:21:01;;;;;;;5.63;4.40;;;;;;;;;;5008625;28;20021;-55
2023/11/22 08:23:31;;;;;;;6.53;4.70;;;;;;;;;;4992017;28;20444;-56
2023/11/22 08:25:57;;;;;;;5.90;4.18;;;;;;;;;;5010567;28;20038;-56
2023/11/22 08:28:22;;;;;;;5.35;4.22;;;;;;;;;;5009962;28;20041;-56
2023/11/22 08:30:47;;;;;;;5.67;3.97;;;;;;;;;;5010955;28;20045;-56
2023/11/22 08:33:13;;;;;;;6.60;4.57;;;;;;;;;;5010043;28;20277;-56
2023/11/22 08:35:39;;;;;;;6.47;4.50;;;;;;;;;;5011290;28;20122;-57
2023/11/22 08:38:07;;;;;;;6.43;4.70;;;;;;;;;;5009753;28;20303;-56
2023/11/22 08:40:36;;;;;;;6.07;4.18;;;;;;;;;;5013272;28;20043;-56
2023/11/22 08:43:02;;;;;;;6.30;4.43;;;;;;;;;;5016235;28;20037;-55
2023/11/22 08:45:29;;;;;;;6.00;4.70;;;;;;;;;;5018760;28;20072;-56
2023/11/22 08:47:54;;;;;;;5.28;4.25;;;;;;;;;;5019498;28;20120;-56
2023/11/22 08:50:19;;;;;;;5.50;4.35;;;;;;;;;;5018217;28;20516;-55
2023/11/22 08:52:46;;;;;;;5.18;4.10;;;;;;;;;;5022979;28;20037;-56
2023/11/22 08:55:12;;;;;;;5.38;3.80;;;;;;;;;;5023816;28;20522;-57
2023/11/22 08:57:37;;;;;;;5.35;4.10;;;;;;;;;;5023773;28;20037;-56
2023/11/22 09:00:07;;;;;;;5.75;4.13;;;;;;;;;;5038517;28;20063;-56
2023/11/22 09:02:32;;;;;;;5.65;3.92;;;;;;;;;;5005525;28;20034;-56
2023/11/22 09:04:58;;;;;;;6.90;4.20;;;;;;;;;;5023663;28;20057;-55
2023/11/22 09:07:24;;;;;;;6.40;4.38;;;;;;;;;;5023185;28;20850;-56
2023/11/22 09:09:51;;;;;;;5.32;4.00;;;;;;;;;;5028856;28;20107;-56
2023/11/22 09:12:19;;;;;;;5.82;4.18;;;;;;;;;;5006572;28;20571;-55
2023/11/22 09:14:44;;;;;;;6.40;4.38;;;;;;;;;;5035555;28;20095;-56
2023/11/22 09:17:10;;;;;;;5.97;4.30;;;;;;;;;;5022669;28;20026;-56
2023/11/22 09:19:35;;;;;;;5.60;4.30;;;;;;;;;;5012382;28;20584;-56
2023/11/22 09:22:01;;;;;;;5.18;3.92;;;;;;;;;;5023435;28;20338;-57
2023/11/22 09:24:26;;;;;;;5.85;4.35;;;;;;;;;;5007528;28;20562;-56
2023/11/22 09:26:52;;;;;;;6.88;3.90;;;;;;;;;;5026407;28;20049;-56
2023/11/22 09:29:18;;;;;;;5.35;4.07;;;;;;;;;;5026758;28;20408;-57
2023/11/22 09:31:46;;;;;;;5.30;3.95;;;;;;;;;;5026722;28;20034;-56
2023/11/22 09:34:11;;;;;;;5.30;4.15;;;;;;;;;;5026065;28;20656;-57
2023/11/22 09:36:36;;;;;;;5.60;4.00;;;;;;;;;;5029604;28;20034;-56
2023/11/22 09:39:02;;;;;;;5.78;4.13;;;;;;;;;;5025913;28;20049;-56
2023/11/22 09:41:28;;;;;;;5.30;4.13;;;;;;;;;;5026926;28;20037;-55
2023/11/22 09:43:53;;;;;;;5.13;3.65;;;;;;;;;;5009275;28;20033;-56
2023/11/22 09:46:21;;;;;;;5.25;4.00;;;;;;;;;;5025974;28;20037;-55
2023/11/22 09:48:49;;;;;;;6.15;3.92;;;;;;;;;;5026269;28;20050;-55
2023/11/22 09:51:20;;;;;;;6.85;4.30;;;;;;;;;;5026362;28;20044;-56
2023/11/22 09:54:00;;;;;;;5.78;4.32;;;;;;;;;;5029745;28;20025;-57
2023/11/22 09:56:25;;;;;;;6.25;4.35;;;;;;;;;;5013652;28;20737;-56
2023/11/22 09:58:55;;;;;;;5.75;3.80;;;;;;;;;;5013534;28;20083;-56
2023/11/22 10:01:21;;;;;;;5.32;3.90;;;;;;;;;;4995852;28;20029;-57
2023/11/22 10:03:47;;;;;;;5.55;3.72;;;;;;;;;;5013399;28;20052;-57
2023/11/22 10:06:14;;;;;;;5.18;3.80;;;;;;;;;;5011288;28;20531;-56
2023/11/22 10:08:40;;;;;;;5.93;3.95;;;;;;;;;;5014577;28;20046;-57
2023/11/22 10:11:06;;;;;;;5.38;3.72;;;;;;;;;;5014384;28;20030;-57
2023/11/22 10:13:32;;;;;;;6.25;3.90;;;;;;;;;;5006674;28;20068;-57
2023/11/22 10:15:59;;;;;;;5.90;4.28;;;;;;;;;;5012549;28;20138;-58
2023/11/22 10:18:24;;;;;;;5.70;3.90;;;;;;;;;;4993279;28;20098;-57
2023/11/22 10:20:49;;;;;;;5.32;3.80;;;;;;;;;;4993134;28;20096;-56
2023/11/22 10:23:15;;;;;;;14.77;11.55;;;;;;;;;;5012192;28;20033;-56
2023/11/22 10:25:44;;;;;;;10.25;6.55;;;;;;;;;;4995961;28;20382;-56
2023/11/22 10:28:09;;;;;;;6.72;5.00;;;;;;;;;;5012115;28;20111;-56
2023/11/22 10:30:35;;;;;;;6.22;4.50;;;;;;;;;;5012850;28;20037;-56
2023/11/22 10:33:01;;;;;;;7.03;4.25;;;;;;;;;;4997974;28;20034;-57
2023/11/22 10:35:26;;;;;;;8.13;4.25;;;;;;;;;;5012496;28;20132;-56
2023/11/22 10:37:52;;;;;;;6.93;4.23;;;;;;;;;;5014027;28;20565;-57
2023/11/22 10:40:17;;;;;;;5.90;4.25;;;;;;;;;;5012684;28;20281;-57
2023/11/22 10:42:46;;;;;;;7.95;4.50;;;;;;;;;;5011271;28;20021;-57
2023/11/22 10:45:11;;;;;;;6.25;4.05;;;;;;;;;;5013481;28;20037;-57
2023/11/22 10:47:42;;;;;;;6.35;4.05;;;;;;;;;;5012170;28;20030;-57
2023/11/22 10:50:08;;;;;;;6.45;4.32;;;;;;;;;;5009300;28;20034;-56
2023/11/22 10:52:33;;;;;;;5.75;4.18;;;;;;;;;;5012115;28;20279;-57
2023/11/22 10:55:02;;;;;;;5.43;4.18;;;;;;;;;;5010805;28;21584;-57
2023/11/22 10:57:27;;;;;;;6.07;4.32;;;;;;;;;;4998163;28;20041;-57
2023/11/22 10:59:54;;;;;;;6.63;4.30;;;;;;;;;;4992559;28;20053;-57
2023/11/22 11:02:19;;;;;;;5.70;4.50;;;;;;;;;;5011308;28;20304;-57
2023/11/22 11:04:49;;;;;;;6.70;4.60;;;;;;;;;;4995508;28;20683;-57
2023/11/22 11:07:15;;;;;;;;;;;;;;;;;;5014787;28;21910;-57
2023/11/22 11:09:40;;;;;;;4.82;3.60;;;;;;;;;;5009943;28;19920;-56
2023/11/22 11:12:06;;;;;;;6.13;4.70;;;;;;;;;;5010042;28;20041;-56
2023/11/22 11:14:31;;;;;;;6.45;4.43;;;;;;;;;;5012431;28;20127;-57
2023/11/22 11:16:58;;;;;;;6.22;4.20;;;;;;;;;;5009901;28;21097;-57
2023/11/22 11:19:25;;;;;;;6.28;4.43;;;;;;;;;;5010806;28;20053;-55
2023/11/22 11:21:50;;;;;;;5.20;3.70;;;;;;;;;;5012306;28;20087;-55
2023/11/22 11:24:18;;;;;;;6.53;4.40;;;;;;;;;;5007714;28;20038;-56
2023/11/22 11:26:48;;;;;;;5.72;4.10;;;;;;;;;;5011282;28;20152;-58
2023/11/22 11:29:14;;;;;;;;;;;;;;;;;;5012454;28;21006;-58
2023/11/22 11:31:39;;;;;;;11.63;7.07;;;;;;;;;;5010976;28;19923;-57
2023/11/22 11:34:07;;;;;;;24.90;15.30;;;;;;;;;;5011566;28;20129;-57
2023/11/22 11:36:33;;;;;;;22.42;13.15;;;;;;;;;;5006807;28;20503;-57
2023/11/22 11:39:00;;;;;;;20.73;11.48;;;;;;;;;;4993377;28;20040;-56
2023/11/22 11:41:26;;;;;;;18.08;10.27;;;;;;;;;;5011727;28;20025;-58
2023/11/22 11:43:52;;;;;;;15.40;9.05;;;;;;;;;;5010041;28;20426;-57
2023/11/22 11:46:17;;;;;;;15.93;9.48;;;;;;;;;;5011639;28;20022;-57
2023/11/22 11:48:50;;;;;;;15.43;8.90;;;;;;;;;;5013208;28;20021;-57
2023/11/22 11:51:16;;;;;;;14.88;8.05;;;;;;;;;;5010205;28;20128;-57
2023/11/22 11:53:41;;;;;;;13.98;8.25;;;;;;;;;;5010726;28;20025;-56
2023/11/22 11:56:07;;;;;;;13.07;7.65;;;;;;;;;;5009665;28;20111;-57
2023/11/22 11:58:32;;;;;;;11.82;7.55;;;;;;;;;;5008906;28;20055;-57
2023/11/22 12:00:57;;;;;;;12.15;7.18;;;;;;;;;;5011557;28;20109;-57
2023/11/22 12:03:23;;;;;;;11.73;6.73;;;;;;;;;;5008988;28;20030;-59
2023/11/22 12:05:51;;;;;;;12.90;7.18;;;;;;;;;;5010041;28;20287;-56
2023/11/22 12:08:17;;;;;;;9.85;6.68;;;;;;;;;;5011527;28;20078;-55
2023/11/22 12:10:42;;;;;;;12.02;6.32;;;;;;;;;;4997088;28;20044;-55
2023/11/22 12:13:08;;;;;;;9.50;6.07;;;;;;;;;;5009350;28;20209;-56
2023/11/22 12:15:34;;;;;;;11.23;6.32;;;;;;;;;;5010233;28;20100;-56
2023/11/22 12:18:00;;;;;;;10.65;6.03;;;;;;;;;;5009838;28;20033;-56
2023/11/22 12:20:31;;;;;;;9.82;6.32;;;;;;;;;;4992199;28;20049;-56
2023/11/22 12:22:56;;;;;;;10.75;6.30;;;;;;;;;;4991871;28;20038;-56
2023/11/22 12:25:21;;;;;;;10.25;5.82;;;;;;;;;;5007626;28;20116;-56
2023/11/22 12:27:47;;;;;;;10.73;6.13;;;;;;;;;;5009430;28;20033;-56
2023/11/22 12:30:34;;;;;;;12.38;6.18;;;;;;;;;;5010640;28;20041;-56
2023/11/22 12:33:00;;;;;;;8.70;5.90;;;;;;;;;;5011056;28;21058;-56
2023/11/22 12:35:26;;;;;;;9.40;5.72;;;;;;;;;;5010755;28;20045;-56
2023/11/22 12:37:51;;;;;;;10.70;6.37;;;;;;;;;;5009832;28;20045;-56
2023/11/22 12:40:17;;;;;;;9.05;5.82;;;;;;;;;;5007843;28;20296;-56
2023/11/22 12:42:49;;;;;;;8.50;5.88;;;;;;;;;;5010374;28;20034;-56
2023/11/22 12:45:21;;;;;;;8.88;5.65;;;;;;;;;;5009666;28;20045;-56
2023/11/22 12:47:47;;;;;;;10.45;5.43;;;;;;;;;;5012853;28;20046;-58
2023/11/22 12:50:32;;;;;;;9.50;5.50;;;;;;;;;;5014813;28;20033;-56
2023/11/22 12:53:13;;;;;;;9.55;6.18;;;;;;;;;;5011534;28;20036;-56
2023/11/22 12:55:46;;;;;;;7.80;5.07;;;;;;;;;;5009764;28;20329;-56
2023/11/22 12:58:12;;;;;;;8.90;5.63;;;;;;;;;;5021465;28;20041;-55
2023/11/22 13:00:39;;;;;;;9.73;5.75;;;;;;;;;;5014260;28;20542;-56
2023/11/22 13:03:05;;;;;;;12.25;7.57;;;;;;;;;;5014673;28;20495;-55
2023/11/22 13:05:30;;;;;;;10.07;5.75;;;;;;;;;;5013393;28;20483;-56
2023/11/22 13:07:55;;;;;;;8.97;5.37;;;;;;;;;;5013289;28;20038;-56
2023/11/22 13:10:25;;;;;;;9.45;5.50;;;;;;;;;;5014570;28;21172;-56
2023/11/22 13:12:51;;;;;;;10.70;6.00;;;;;;;;;;5014545;28;20072;-56
2023/11/22 13:15:16;;;;;;;8.45;5.22;;;;;;;;;;5013531;28;20148;-57
2023/11/22 13:17:41;;;;;;;7.75;5.18;;;;;;;;;;5013853;28;20141;-57
2023/11/22 13:20:14;;;;;;;7.33;4.90;;;;;;;;;;5012039;28;20422;-56
2023/11/22 13:22:41;;;;;;;8.95;5.20;;;;;;;;;;5023672;28;20883;-56
2023/11/22 13:25:07;;;;;;;8.43;4.80;;;;;;;;;;5026948;28;20040;-56
2023/11/22 13:27:32;;;;;;;8.52;5.05;;;;;;;;;;5026795;28;20041;-56
2023/11/22 13:29:58;;;;;;;7.55;4.75;;;;;;;;;;5026032;28;20034;-57
2023/11/22 13:32:24;;;;;;;7.57;4.82;;;;;;;;;;5035101;28;20415;-57
2023/11/22 13:34:53;;;;;;;7.68;5.45;;;;;;;;;;5028833;28;20057;-57
2023/11/22 13:37:22;;;;;;;9.25;5.40;;;;;;;;;;5026262;28;20060;-58
2023/11/22 13:39:48;;;;;;;8.15;5.20;;;;;;;;;;5025274;28;20045;-57
2023/11/22 13:42:13;;;;;;;9.23;5.37;;;;;;;;;;5026302;28;20039;-57
2023/11/22 13:44:38;;;;;;;8.73;5.50;;;;;;;;;;5026062;28;20784;-57
2023/11/22 13:47:07;;;;;;;9.77;4.97;;;;;;;;;;5010676;28;20275;-57
2023/11/22 13:49:33;;;;;;;8.83;5.20;;;;;;;;;;5021785;28;20311;-56
2023/11/22 13:51:58;;;;;;;7.30;4.90;;;;;;;;;;5031747;28;20166;-57
2023/11/22 13:54:23;;;;;;;7.57;5.07;;;;;;;;;;5026455;28;20487;-58
2023/11/22 13:56:49;;;;;;;6.80;4.87;;;;;;;;;;5025979;28;20333;-57
2023/11/22 13:59:14;;;;;;;7.82;5.55;;;;;;;;;;5035004;28;20303;-57
2023/11/22 14:01:40;;;;;;;7.32;5.10;;;;;;;;;;5033694;28;20029;-57
2023/11/22 14:04:05;;;;;;;10.17;5.17;;;;;;;;;;5028570;28;20488;-57
2023/11/22 14:06:31;;;;;;;7.85;5.32;;;;;;;;;;5029804;28;20299;-57
2023/11/22 14:08:56;;;;;;;7.47;4.85;;;;;;;;;;5025439;28;20124;-57
2023/11/22 14:11:21;;;;;;;8.02;5.30;;;;;;;;;;5026193;28;20559;-57
2023/11/22 14:13:46;;;;;;;7.32;4.75;;;;;;;;;;5026373;28;20022;-57
2023/11/22 14:16:13;;;;;;;8.27;4.90;;;;;;;;;;5028733;28;20024;-57
2023/11/22 14:18:39;;;;;;;7.65;4.82;;;;;;;;;;5025834;28;20809;-57
2023/11/22 14:21:04;;;;;;;7.27;4.90;;;;;;;;;;5031479;28;20152;-57
2023/11/22 14:23:29;;;;;;;8.07;5.18;;;;;;;;;;5008403;28;20705;-57
2023/11/22 14:25:54;;;;;;;6.47;4.50;;;;;;;;;;5025545;28;20092;-56
2023/11/22 14:28:20;;;;;;;6.90;4.50;;;;;;;;;;5025370;28;20335;-56
2023/11/22 14:30:45;;;;;;;7.40;5.03;;;;;;;;;;5024954;28;20287;-57